Warm Springs Summit, Nevada Weather observations

Data are for observation ending at time listed.
 Day   Time    Ave.   Ave.  Ave.  Vector   Max.   Stn.    Total    Solar   Ave.  
  of    of     Air    Rel.  Wind   Wind    Wind   Baro.  Precip.   Rad.    Soil  
Year   Day     Temp.  Hum.  Speed  Dir.    Gust   Pres.                    Temp. 
2016   (PST)    F      %     mph   deg.    mph     mb.     in.     W/m2     F   
------------------------------------------------------------------------------
 176   21:10   69.6     9    7.7   354     14.9   776.1    0.00       0    81.5
 176   21:20   68.6     9    7.5    56     15.9   776.3    0.00       0    81.3
 176   21:30   67.5     9    5.9   111      9.2   776.4    0.00       0    81.1
 176   21:40   66.1    10    5.2   100      9.2   776.4    0.00       0    81.0
 176   21:50   65.0    10    6.6    96     10.9   776.4    0.00       0    80.8
 176   22:00   64.1    11    9.8    85     14.9   776.5    0.00       0    80.7
 176   22:10   63.9    12   10.2    77     13.4   776.5    0.00       0    80.5
 176   22:20   63.5    12    9.3    80     13.2   776.5    0.00       0    80.3
 176   22:30   63.0    12    8.6    82     12.2   776.6    0.00       0    80.1
 176   22:40   62.7    12    8.3    77     10.4   776.6    0.00       0    80.0
 176   22:50   62.9    12    8.8    54     12.9   776.6    0.00       0    79.8
 176   23:00   63.2    11    7.2    46     11.4   776.7    0.00       0    79.6
 176   23:10   63.3    11    5.2    32      8.4   776.6    0.00       0    79.4
 176   23:20   63.4    11    5.5    26      7.6   776.6    0.00       0    79.2
 176   23:30   63.4    11    5.4    39      8.0   776.7    0.00       0    79.1
 176   23:40   63.2    11    7.0    56      9.2   776.7    0.00       0    78.9
 176   23:50   63.1    11    5.8    42      8.1   776.8    0.00       0    78.7
 177    0:00   62.6    11    6.3    42      8.4   776.8    0.00       0    78.5
 177    0:10   62.2    12    5.5    30      8.7   776.8    0.00       0    78.3
 177    0:20   61.9    12    8.1    55     11.4   776.8    0.00       0    78.1
 177    0:30   61.3    12    9.4    68     12.8   776.9    0.00       0    77.9
 177    0:40   60.9    13   11.2    62     18.0   776.8    0.00       0    77.8
 177    0:50   60.9    14   13.4    57     19.6   776.7    0.00       0    77.6
 177    1:00   60.6    14   13.6    56     16.9   776.8    0.00       0    77.4
 177    1:10   60.1    15   12.6    54     17.2   776.8    0.00       0    77.2
 177    1:20   59.6    15    9.8    44     14.6   776.8    0.00       0    77.0
 177    1:30   59.2    15    8.5    30     13.6   776.7    0.00       0    76.8
 177    1:40   59.1    15    8.6    22     17.1   776.7    0.00       0    76.6
 177    1:50   59.3    17   10.1    27     17.7   776.7    0.00       0    76.5
 177    2:00   59.3    18   10.3    25     16.6   776.7    0.00       0    76.3
 177    2:10   59.6    17    9.4    24     18.2   776.7    0.00       0    76.1
 177    2:20   59.6    17    8.8    22     14.6   776.7    0.00       0    75.9
 177    2:30   59.3    17    8.5    29     12.2   776.7    0.00       0    75.8
 177    2:40   59.0    17   10.5    31     17.8   776.6    0.00       0    75.6
 177    2:50   58.9    18    8.8    32     16.1   776.7    0.00       0    75.4
 177    3:00   58.7    18    9.7    29     16.5   776.8    0.00       0    75.3
 177    3:10   58.2    19    8.4    36     15.7   776.8    0.00       0    75.1
 177    3:20   57.3    19    6.8    29     12.7   776.9    0.00       0    74.9
 177    3:30   57.2    19    6.9    32     13.2   776.9    0.00       0    74.8
 177    3:40   57.2    19    8.4    35     17.4   777.0    0.00       0    74.6
 177    3:50   57.0    20    8.9    31     17.1   777.0    0.00       0    74.4
 177    4:00   57.1    20    8.6    36     15.8   777.0    0.00       0    74.3
 177    4:10   57.0    20    7.4    32     15.8   777.0    0.00       1    74.1
 177    4:20   56.9    20    7.2    22     15.6   777.1    0.00       4    74.0
 177    4:30   57.3    20    7.7    27     14.9   777.2    0.00      10    73.8
 177    4:40   57.8    20    6.8    25     15.5   777.3    0.00      26    73.6
 177    4:50   58.1    20    7.9    27     18.0   777.3    0.00      50    73.4
 177    5:00   58.6    20    6.9    24     16.3   777.4    0.00      81    73.3
 177    5:10   58.8    20    9.0    23     16.8   777.4    0.00     117    73.1
 177    5:20   58.7    20    7.8    24     15.5   777.4    0.00     149    73.0
 177    5:30   58.9    20    9.3    27     19.3   777.5    0.00     180    72.9
 177    5:40   59.0    21   11.6    27     19.5   777.5    0.00     211    72.7
 177    5:50   59.6    21    8.8    24     16.6   777.6    0.00     243    72.6
 177    6:00   59.8    21   11.7    38     19.7   777.6    0.00     277    72.5
 177    6:10   59.9    21   10.5    37     18.1   777.6    0.00     311    72.4
 177    6:20   60.5    20    9.3    34     16.8   777.7    0.00     346    72.2
 177    6:30   60.7    20    9.0    34     16.6   777.7    0.00     380    72.1
 177    6:40   61.1    20   10.7    39     19.9   777.7    0.00     415    72.0
 177    6:50   60.7    20   12.5    42     19.6   777.8    0.00     449    71.9
 177    7:00   61.3    20   10.7    40     19.6   777.8    0.00     483    71.8
 177    7:10   61.7    20   11.6    47     19.3   777.8    0.00     513    71.8
 177    7:20   62.0    20   12.3    42     21.1   777.9    0.00     550    71.7
 177    7:30   62.7    19   13.7    53     20.0   777.9    0.00     583    71.7
 177    7:40   63.4    19   13.5    50     20.8   778.0    0.00     616    71.6
 177    7:50   64.2    18   11.7    45     19.9   778.0    0.00     648    71.6
 177    8:00   64.8    18   13.3    54     20.6   778.1    0.00     679    71.6
 177    8:10   64.9    18   13.8    52     19.9   778.1    0.00     710    71.6
 177    8:20   65.8    17   12.8    53     21.4   778.1    0.00     739    71.6
 177    8:30   66.5    16   13.8    55     19.9   778.1    0.00     767    71.6
 177    8:40   66.6    16   14.9    55     21.4   778.1    0.00     795    71.7
 177    8:50   67.3    15   13.7    54     22.8   778.0    0.00     822    71.8
 177    9:00   67.7    15   14.6    58     21.9   778.0    0.00     847    71.9
 177    9:10   68.7    15   12.9    56     22.0   778.1    0.00     872    71.9
 177    9:20   68.7    14   14.8    57     22.1   778.0    0.00     895    72.1
 177    9:30   69.9    14   11.5    69     21.0   778.1    0.00     917    72.2
 177    9:40   70.7    14    9.3    46     19.0   778.2    0.00     937    72.2
 177    9:50   72.1    13   10.7    59     18.5   778.2    0.00     956    72.4
 177   10:00   71.1    13   10.9    59     20.6   778.3    0.00     973    72.6
 177   10:10   70.9    12    9.8    49     18.9   778.3    0.00     989    72.7
 177   10:20   72.3    12    9.1    58     18.2   778.4    0.00    1002    73.0
 177   10:30   73.1    12   10.2    69     20.5   778.3    0.00    1017    73.2
 177   10:40   73.8    12    8.8    64     18.3   778.3    0.00    1028    73.4
 177   10:50   75.0    12    9.9    66     17.3   778.3    0.00    1039    73.7
 177   11:00   75.1    11    8.8    69     14.7   778.2    0.00    1046    73.9
 177   11:10   74.7    11   11.0    66     16.9   778.2    0.00    1053    74.2
 177   11:20   74.6    11    9.3    72     15.9   778.2    0.00    1058    74.5
 177   11:30   76.4    11   11.1   105     15.1   778.1    0.00    1061    74.7
 177   11:40   76.3    11    7.7    64     14.6   778.2    0.00    1063    75.0
 177   11:50   75.4    11    6.4    44     12.8   778.1    0.00    1063    75.3
 177   12:00   76.5    11    8.3    55     17.0   778.0    0.00    1063    75.6
 177   12:10   77.0    11    6.7    73     12.3   778.0    0.00    1060    76.0
 177   12:20   78.4    10    8.2   110     16.0   777.9    0.00    1057    76.3
 177   12:30   79.1    10    6.9   130     15.5   777.9    0.00    1051    76.6
 177   12:40   79.5    10    6.3   109     12.2   777.9    0.00    1044    77.0
 177   12:50   79.4    10    8.8   131     15.7   777.9    0.00    1035    77.3
 177   13:00   79.9    10    8.0   235     15.6   777.8    0.00    1027    77.7
 177   13:10   78.1    10   11.6   213     17.4   777.8    0.00    1015    78.0
 177   13:20   78.2    10    8.2   233     17.6   777.8    0.00    1003    78.3
 177   13:30   77.4    10   13.2   248     20.7   777.7    0.00     987    78.7
 177   13:40   78.7    10   10.0   274     17.1   777.7    0.00     970    79.1
 177   13:50   79.9     9   11.7   236     22.5   777.5    0.00     954    79.4
 177   14:00   80.3     9   15.0   262     26.6   777.4    0.00     936    79.8
 177   14:10   79.0     9   12.6   271     22.3   777.3    0.00     910    80.2
 177   14:20   79.2     9   15.0   286     27.5   777.2    0.00     886    80.5
 177   14:30   80.3     9   11.1   260     16.6   777.2    0.00     861    80.8
 177   14:40   80.1     8   10.8   235     20.7   777.2    0.00     841    81.1
 177   14:50   80.7     8    7.1   232     13.6   777.1    0.00     812    81.3
 177   15:00   81.9     8   10.4   213     17.4   777.0    0.00     789    81.7
 177   15:10   81.1     8   16.3   215     29.5   776.8    0.00     758    82.0
 177   15:20   80.4     8   18.3   207     27.5   776.7    0.00     730    82.2
 177   15:30   80.0     9   16.3   239     28.9   776.7    0.00     697    82.5
 177   15:40   81.4     8   10.9   224     19.6   776.8    0.00     664    82.7
 177   15:50   80.5     8   13.4   230     26.7   776.7    0.00     635    82.9
 177   16:00   80.1     8   15.5   219     28.1   776.6    0.00     604    83.0
 177   16:10   79.9     8   18.0   230     32.0   776.5    0.00     571    83.2
 177   16:20   78.8     9   19.0   240     28.9   776.5    0.00     536    83.4
 177   16:30   78.6     8   15.5   236     25.9   776.5    0.00     504    83.5
 177   16:40   79.8     8   12.8   251     25.9   776.5    0.00     474    83.6
 177   16:50   79.2     7   16.8   260     25.7   776.4    0.00     437    83.7
 177   17:00   79.2     7   12.0   250     23.7   776.5    0.00     401    83.8
 177   17:10   78.7     8   16.2   234     24.7   776.4    0.00     367    83.9
 177   17:20   78.9     8   16.1   250     20.5   776.4    0.00     334    83.9
 177   17:30   78.7     7   15.7   244     23.7   776.4    0.00     296    83.9
 177   17:40   78.2     7   16.4   242     21.7   776.4    0.00     265    83.9
 177   17:50   78.2     7   16.7   258     24.4   776.4    0.00     174    83.9
 177   18:00   77.9     7   15.8   243     22.0   776.5    0.00     155    83.9
 177   18:10   77.6     7   14.9   241     22.6   776.5    0.00     150    83.9
 177   18:20   77.4     7   15.2   253     21.8   776.5    0.00     122    83.9
 177   18:30   76.9     8   11.5   238     17.4   776.6    0.00      96    83.9
 177   18:40   76.7     7   14.8   263     17.7   776.6    0.00      64    83.8
 177   18:50   76.3     7   14.8   262     17.6   776.6    0.00      35    83.7
 177   19:00   75.6     8   15.3   264     19.3   776.6    0.00      14    83.6
 177   19:10   74.5     8   12.0   276     16.0   776.7    0.00       5    83.6
 177   19:20   74.0     8   13.7   275     18.8   776.6    0.00       2    83.4
 177   19:30   73.5     8   12.4   270     15.5   776.7    0.00       0    83.3
 177   19:40   73.3     8   12.3   272     16.2   776.7    0.00       0    83.2
 177   19:50   73.3     8   13.9   280     17.0   776.7    0.00       0    83.1
 177   20:00   73.0     9   12.4   282     14.9   776.8    0.00       0    82.9
 177   20:10   73.1     9   11.8   288     15.2   776.8    0.00       0    82.8
 177   20:20   72.9     9   12.4   293     14.7   776.9    0.00       0    82.6
 177   20:30   72.8     9   12.4   301     14.5   777.0    0.00       0    82.5
 177   20:40   72.5     9   12.1   303     13.6   777.1    0.00       0    82.3
 177   20:50   72.8     9   12.2   307     14.7   777.1    0.00       0    82.1
 177   21:00   73.0     9   11.8   306     14.7   777.2    0.00       0    82.0

Return to Warm Springs Summit, Nevada graphs page.


Western Regional Climate Center,wrcc@dri.edu